Time;durP1;ratioP1;P1;durP2;ratioP2;P2;SDS_P1;SDS_P2;PMS_P1;PMS_P2;Temp;Humidity;BMP_temperature;BMP_pressure;BME280_temperature;BME280_humidity;BME280_pressure;Samples;Min_cycle;Max_cycle;Signal;HPM_P1;HPM_P2
2021/12/22 00:01:05;;;;;;;26.77;16.77;;;;;;;-2.01;100.00;102741.13;4743693;30;20048;-76
2021/12/22 00:03:33;;;;;;;28.30;17.60;;;;;;;-2.01;100.00;102741.13;4734672;30;20172;-75
2021/12/22 00:06:02;;;;;;;25.55;14.93;;;;;;;-2.02;100.00;102749.66;4695803;30;20048;-75
2021/12/22 00:08:31;;;;;;;25.77;16.23;;;;;;;-2.01;100.00;102753.16;4711062;30;20056;-74
2021/12/22 00:11:00;;;;;;;22.35;14.45;;;;;;;-2.01;100.00;102753.16;4750441;30;20052;-75
2021/12/22 00:13:29;;;;;;;30.52;15.63;;;;;;;-2.02;100.00;102741.91;4712033;30;20688;-75
2021/12/22 00:15:58;;;;;;;23.10;14.88;;;;;;;-2.02;100.00;102752.25;4726873;30;20048;-75
2021/12/22 00:18:26;;;;;;;30.45;15.38;;;;;;;-2.03;100.00;102747.84;4716922;30;20528;-76
2021/12/22 00:20:55;;;;;;;28.50;15.23;;;;;;;-2.04;100.00;102743.47;4735907;30;20509;-75
2021/12/22 00:23:24;;;;;;;26.00;15.48;;;;;;;-2.06;100.00;102742.44;4729184;30;20055;-75
2021/12/22 00:25:53;;;;;;;26.58;15.20;;;;;;;-2.08;100.00;102735.31;4700106;30;20435;-75
2021/12/22 00:28:21;;;;;;;24.48;14.73;;;;;;;-2.07;100.00;102740.63;4726344;30;20044;-75
2021/12/22 00:30:51;;;;;;;31.05;15.55;;;;;;;-2.09;100.00;102733.53;4731596;30;20044;-75
2021/12/22 00:33:20;;;;;;;21.38;14.75;;;;;;;-2.12;100.00;102741.91;4736250;30;20071;-75
2021/12/22 00:35:48;;;;;;;23.35;14.88;;;;;;;-2.13;100.00;102746.97;4718760;30;20055;-76
2021/12/22 00:38:19;;;;;;;26.42;15.45;;;;;;;-2.15;100.00;102739.06;4703120;30;20059;-75
2021/12/22 00:40:50;;;;;;;30.73;16.38;;;;;;;-2.18;100.00;102739.69;4751459;30;20520;-75
2021/12/22 00:47:38;;;;;;;20.85;13.75;;;;;;;-2.20;100.00;102755.84;4710478;30;19934;-77
2021/12/22 00:50:45;;;;;;;26.75;15.65;;;;;;;-2.21;100.00;102734.28;4681483;30;20064;-76
2021/12/22 00:54:21;;;;;;;15.00;11.30;;;;;;;-2.22;100.00;102737.63;4672185;30;20065;-76
2021/12/22 00:58:20;;;;;;;;;;;;;;;;;;;;;
2021/12/22 01:02:04;;;;;;;25.08;14.98;;;;;;;-2.26;100.00;102740.72;4654512;30;20382;-77
2021/12/22 01:05:19;;;;;;;23.85;15.18;;;;;;;-2.27;100.00;102732.84;4668372;30;20571;-77
2021/12/22 01:08:55;;;;;;;19.35;13.65;;;;;;;-2.29;100.00;102731.81;4662818;30;20198;-76
2021/12/22 01:12:28;;;;;;;27.25;14.07;;;;;;;-2.30;100.00;102737.78;4659273;30;20057;-77
2021/12/22 01:14:56;;;;;;;22.63;14.45;;;;;;;-2.34;100.00;102739.19;4682585;30;20539;-75
2021/12/22 01:17:25;;;;;;;21.63;13.23;;;;;;;-2.33;100.00;102747.81;4677624;30;20401;-76
2021/12/22 01:20:03;;;;;;;27.75;15.35;;;;;;;-2.34;100.00;102752.09;4758710;30;20076;-76
2021/12/22 01:22:46;;;;;;;24.23;15.27;;;;;;;-2.36;100.00;102753.66;4716167;30;20328;-75
2021/12/22 01:25:19;;;;;;;22.52;14.55;;;;;;;-2.38;100.00;102750.94;4720141;30;20063;-75
2021/12/22 01:27:48;;;;;;;22.25;13.52;;;;;;;-2.38;100.00;102748.34;4719987;30;20055;-75
2021/12/22 01:30:24;;;;;;;25.85;13.63;;;;;;;-2.39;100.00;102748.22;4726775;30;20056;-75
2021/12/22 01:32:55;;;;;;;31.58;15.52;;;;;;;-2.40;100.00;102744.72;4725371;30;20045;-75
2021/12/22 01:35:29;;;;;;;23.38;15.48;;;;;;;-2.41;100.00;102742.91;4708746;30;20531;-75
2021/12/22 01:37:58;;;;;;;25.33;15.13;;;;;;;-2.41;100.00;102748.06;4709142;30;20051;-74
2021/12/22 01:40:27;;;;;;;20.48;14.18;;;;;;;-2.41;100.00;102744.59;4687870;30;20044;-74
2021/12/22 01:42:57;;;;;;;22.08;14.45;;;;;;;-2.41;100.00;102747.16;4713038;30;20040;-76
2021/12/22 01:51:34;;;;;;;22.15;14.32;;;;;;;-2.44;100.00;102744.31;4709643;30;20049;-76
2021/12/22 01:54:10;;;;;;;21.65;13.90;;;;;;;-2.46;100.00;102741.59;4735502;30;20059;-75
2021/12/22 01:56:41;;;;;;;27.13;14.02;;;;;;;-2.48;100.00;102731.91;4714756;30;20185;-75
2021/12/22 01:59:09;;;;;;;25.13;13.68;;;;;;;-2.49;100.00;102737.88;4700058;30;20055;-75
2021/12/22 02:01:39;;;;;;;27.35;15.45;;;;;;;-2.49;100.00;102731.03;4710424;30;20185;-75
2021/12/22 02:04:13;;;;;;;26.83;14.52;;;;;;;-2.50;100.00;102747.28;4717629;30;20067;-75
2021/12/22 02:06:45;;;;;;;22.77;14.20;;;;;;;-2.51;100.00;102741.97;4713626;30;20053;-75
2021/12/22 02:12:12;;;;;;;23.97;14.13;;;;;;;-2.52;100.00;102735.91;4685267;30;20052;-74
2021/12/22 02:14:41;;;;;;;25.88;13.82;;;;;;;-2.53;100.00;102733.19;4730456;30;20059;-75
2021/12/22 02:17:12;;;;;;;26.85;15.00;;;;;;;-2.53;100.00;102740.94;4700957;30;20384;-74
2021/12/22 02:19:44;;;;;;;27.20;16.13;;;;;;;-2.55;100.00;102727.91;4737491;30;20903;-75
2021/12/22 02:22:17;;;;;;;27.90;14.70;;;;;;;-2.55;100.00;102733.09;4729103;30;20048;-75
2021/12/22 02:24:55;;;;;;;21.65;14.73;;;;;;;-2.57;100.00;102732.00;4744421;30;20680;-75
2021/12/22 02:27:49;;;;;;;27.50;15.13;;;;;;;-2.56;100.00;102733.84;4717267;30;20048;-74
2021/12/22 02:30:22;;;;;;;23.73;15.48;;;;;;;-2.56;100.00;102733.84;4745715;30;20048;-75
2021/12/22 02:36:05;;;;;;;26.08;15.85;;;;;;;-2.57;100.00;102734.59;4733665;30;20044;-75
2021/12/22 02:38:17;;;;;;;29.50;16.42;;;;;;;-2.58;100.00;102732.81;4734434;30;20058;-76
2021/12/22 02:40:51;;;;;;;23.17;15.05;;;;;;;-2.60;100.00;102735.25;4717171;30;20277;-76
2021/12/22 02:43:24;;;;;;;29.20;16.90;;;;;;;-2.60;100.00;102735.25;4701049;30;20052;-74
2021/12/22 02:45:55;;;;;;;28.10;15.68;;;;;;;-2.60;100.00;102739.50;4736026;30;20040;-75
2021/12/22 02:48:28;;;;;;;26.00;15.77;;;;;;;-2.61;100.00;102742.84;4739735;30;20044;-74
2021/12/22 02:51:01;;;;;;;26.55;15.65;;;;;;;-2.62;100.00;102741.97;4726337;30;20075;-75
2021/12/22 02:53:41;;;;;;;22.98;15.88;;;;;;;-2.64;100.00;102742.59;4732133;30;20273;-74
2021/12/22 03:03:59;;;;;;;32.50;16.98;;;;;;;-2.68;100.00;102735.38;4708880;30;20543;-75
2021/12/22 03:09:21;;;;;;;28.05;16.88;;;;;;;-2.70;100.00;102731.72;4745708;30;20056;-76
2021/12/22 03:11:51;;;;;;;31.08;17.55;;;;;;;-2.71;100.00;102725.66;4753867;30;20055;-74
2021/12/22 03:14:21;;;;;;;30.45;17.23;;;;;;;-2.72;100.00;102720.38;4694844;30;20032;-75
2021/12/22 03:16:51;;;;;;;31.65;18.40;;;;;;;-2.72;100.00;102728.09;4733509;30;20075;-75
2021/12/22 03:19:26;;;;;;;31.92;17.23;;;;;;;-2.74;100.00;102725.44;4727977;30;20056;-75
2021/12/22 03:22:02;;;;;;;33.47;16.83;;;;;;;-2.76;100.00;102721.78;4716434;30;20443;-75
2021/12/22 03:24:35;;;;;;;29.33;16.65;;;;;;;-2.79;100.00;102714.69;4721982;30;20047;-75
2021/12/22 03:27:04;;;;;;;31.08;16.67;;;;;;;-2.78;100.00;102713.00;4757568;30;20060;-74
2021/12/22 03:29:36;;;;;;;29.17;17.70;;;;;;;-2.79;100.00;102721.53;4710244;30;20526;-74
2021/12/22 03:32:06;;;;;;;27.90;16.27;;;;;;;-2.81;100.00;102718.81;4729857;30;20550;-75
2021/12/22 03:34:35;;;;;;;;;;;;;;;-2.83;100.00;102728.09;4721535;30;20048;-74
2021/12/22 03:37:04;;;;;;;30.70;16.48;;;;;;;-2.85;100.00;102734.78;4719230;30;20484;-74
2021/12/22 03:39:33;;;;;;;35.08;16.70;;;;;;;-2.86;100.00;102739.81;4718412;30;20060;-75
2021/12/22 03:42:02;;;;;;;31.25;16.02;;;;;;;-2.89;100.00;102739.53;4727840;30;20060;-74
2021/12/22 03:44:30;;;;;;;29.77;15.93;;;;;;;-2.92;100.00;102729.88;4741273;30;20058;-74
2021/12/22 03:47:03;;;;;;;36.17;17.88;;;;;;;-2.92;100.00;102726.38;4703130;30;20056;-75
2021/12/22 03:49:32;;;;;;;27.77;16.35;;;;;;;-2.96;100.00;102728.69;4721484;30;20502;-75
2021/12/22 03:52:00;;;;;;;28.10;15.05;;;;;;;-2.97;100.00;102731.13;4758136;30;20469;-75
2021/12/22 03:54:29;;;;;;;32.70;16.08;;;;;;;-2.99;100.00;102732.66;4723811;30;20044;-75
2021/12/22 03:56:57;;;;;;;24.20;14.82;;;;;;;-3.03;100.00;102725.44;4741951;30;20262;-75
2021/12/22 03:59:26;;;;;;;22.38;13.88;;;;;;;-3.06;100.00;102727.72;4717306;30;20047;-75
2021/12/22 04:01:55;;;;;;;23.58;15.88;;;;;;;-3.09;100.00;102725.81;4685161;30;20270;-74
2021/12/22 04:04:24;;;;;;;27.55;14.38;;;;;;;-3.10;100.00;102726.59;4725732;30;20040;-75
2021/12/22 04:06:53;;;;;;;23.90;13.52;;;;;;;-3.14;100.00;102709.94;4726271;30;20189;-74
2021/12/22 04:09:27;;;;;;;28.25;13.63;;;;;;;-3.16;100.00;102719.22;4722345;30;20048;-74
2021/12/22 04:11:55;;;;;;;23.90;14.18;;;;;;;-3.16;100.00;102729.53;4691816;30;20056;-74
2021/12/22 04:14:24;;;;;;;23.98;13.55;;;;;;;-3.18;100.00;102715.56;4701871;30;20395;-74
2021/12/22 04:16:53;;;;;;;24.42;13.38;;;;;;;-3.18;100.00;102719.81;4675531;30;20411;-74
2021/12/22 04:19:25;;;;;;;20.33;12.65;;;;;;;-3.21;100.00;102717.88;4697941;30;20068;-75
2021/12/22 04:21:53;;;;;;;24.55;12.88;;;;;;;-3.22;100.00;102722.91;4726434;30;20048;-75
2021/12/22 04:24:22;;;;;;;21.23;12.73;;;;;;;-3.23;100.00;102724.59;4743231;30;20530;-74
2021/12/22 04:26:51;;;;;;;23.83;13.35;;;;;;;-3.26;100.00;102726.88;4717493;30;20071;-74
2021/12/22 04:29:22;;;;;;;24.83;14.98;;;;;;;-3.28;100.00;102720.69;4707046;30;20052;-74
2021/12/22 04:31:51;;;;;;;23.88;13.82;;;;;;;-3.28;100.00;102723.25;4724971;30;20060;-74
2021/12/22 04:34:19;;;;;;;30.80;14.82;;;;;;;-3.28;100.00;102722.38;4696806;30;20512;-75
2021/12/22 04:36:48;;;;;;;21.52;12.65;;;;;;;-3.30;100.00;102719.66;4686677;30;20178;-75
2021/12/22 04:39:16;;;;;;;20.92;13.07;;;;;;;-3.29;100.00;102720.53;4711866;30;20060;-74
2021/12/22 04:41:45;;;;;;;23.65;13.18;;;;;;;-3.31;100.00;102707.50;4692584;30;20037;-74
2021/12/22 04:44:13;;;;;;;22.75;12.88;;;;;;;-3.31;100.00;102706.59;4710665;30;20040;-75
2021/12/22 04:46:42;;;;;;;22.13;12.88;;;;;;;-3.34;100.00;102708.16;4729495;30;20178;-74
2021/12/22 04:49:10;;;;;;;22.00;12.77;;;;;;;-3.35;100.00;102708.00;4699368;30;20051;-74
2021/12/22 04:51:48;;;;;;;25.02;13.60;;;;;;;-3.37;100.00;102697.56;4712041;30;20059;-74
2021/12/22 04:54:29;;;;;;;26.35;13.07;;;;;;;-3.39;100.00;102701.66;4706199;30;20055;-75
2021/12/22 04:56:59;;;;;;;19.58;12.75;;;;;;;-3.39;100.00;102698.19;4714055;30;20261;-75
2021/12/22 04:59:28;;;;;;;20.92;12.23;;;;;;;-3.41;100.00;102692.00;4715969;30;20530;-75
2021/12/22 05:01:57;;;;;;;23.40;12.10;;;;;;;-3.41;100.00;102690.31;4743207;30;20502;-74
2021/12/22 05:04:26;;;;;;;24.93;12.17;;;;;;;-3.41;100.00;102681.69;4692014;30;20044;-74
2021/12/22 05:06:54;;;;;;;24.50;13.57;;;;;;;-3.42;100.00;102687.59;4733837;30;20047;-74
2021/12/22 05:09:23;;;;;;;22.13;12.82;;;;;;;-3.43;100.00;102688.38;4744157;30;20068;-74
2021/12/22 05:11:52;;;;;;;21.15;12.50;;;;;;;-3.45;100.00;102682.19;4728288;30;20066;-74
2021/12/22 05:14:20;;;;;;;22.63;13.05;;;;;;;-3.46;100.00;102683.88;4718227;30;20415;-74
2021/12/22 05:16:52;;;;;;;18.92;12.20;;;;;;;-3.48;100.00;102679.31;4713830;30;20276;-75
2021/12/22 05:19:21;;;;;;;23.17;12.52;;;;;;;-3.48;100.00;102684.47;4731308;30;20056;-74
2021/12/22 05:21:51;;;;;;;20.65;13.43;;;;;;;-3.50;100.00;102678.28;4699075;30;20837;-75
2021/12/22 05:24:20;;;;;;;22.85;12.68;;;;;;;-3.52;100.00;102675.56;4732462;30;20055;-74
2021/12/22 05:26:49;;;;;;;23.67;12.73;;;;;;;-3.55;100.00;102677.91;4749705;30;20722;-75
2021/12/22 05:29:17;;;;;;;19.05;12.93;;;;;;;-3.58;100.00;102670.78;4719419;30;20526;-74
2021/12/22 05:31:53;;;;;;;20.70;12.70;;;;;;;-3.60;100.00;102674.88;4720221;30;20754;-75
2021/12/22 05:34:23;;;;;;;18.65;12.35;;;;;;;-3.62;100.00;102678.09;4709356;30;20044;-76
2021/12/22 05:36:51;;;;;;;19.70;12.48;;;;;;;-3.63;100.00;102676.28;4710887;30;20075;-74
2021/12/22 05:39:20;;;;;;;19.02;13.63;;;;;;;-3.64;100.00;102680.53;4716781;30;20048;-74
2021/12/22 05:41:48;;;;;;;18.45;12.18;;;;;;;-3.66;100.00;102674.34;4718035;30;20052;-75
2021/12/22 05:44:17;;;;;;;23.73;13.25;;;;;;;-3.69;100.00;102661.19;4725891;30;20043;-75
2021/12/22 05:46:45;;;;;;;21.00;12.95;;;;;;;-3.69;100.00;102666.31;4741449;30;20252;-75
2021/12/22 05:49:14;;;;;;;21.67;13.55;;;;;;;-3.71;100.00;102665.28;4750095;30;20060;-75
2021/12/22 05:51:43;;;;;;;19.10;13.38;;;;;;;-3.72;100.00;102659.25;4691210;30;20262;-74
2021/12/22 05:54:11;;;;;;;22.35;13.10;;;;;;;-3.75;100.00;102655.47;4694123;30;20058;-74
2021/12/22 05:56:40;;;;;;;23.65;14.60;;;;;;;-3.78;100.00;102655.19;4725071;30;20251;-75
2021/12/22 05:59:08;;;;;;;19.88;13.20;;;;;;;-3.79;100.00;102659.44;4714044;30;20064;-74
2021/12/22 06:01:37;;;;;;;23.90;12.98;;;;;;;-3.82;100.00;102660.84;4710331;30;20415;-74
2021/12/22 06:04:07;;;;;;;24.98;12.98;;;;;;;-3.83;100.00;102656.47;4714620;30;20055;-74
2021/12/22 06:06:36;;;;;;;24.63;14.05;;;;;;;-3.83;100.00;102647.06;4724903;30;20063;-73
2021/12/22 06:09:05;;;;;;;24.58;13.93;;;;;;;-3.86;100.00;102653.59;4708357;30;20035;-75
2021/12/22 06:11:34;;;;;;;18.27;13.45;;;;;;;-3.87;100.00;102649.25;4747792;30;20064;-74
2021/12/22 06:14:02;;;;;;;20.65;14.20;;;;;;;-3.89;100.00;102656.81;4736546;30;20511;-73
2021/12/22 06:16:31;;;;;;;23.60;14.30;;;;;;;-3.91;100.00;102650.63;4721799;30;20056;-74
2021/12/22 06:19:04;;;;;;;22.35;14.20;;;;;;;-3.93;100.00;102653.06;4718513;30;20414;-75
2021/12/22 06:21:32;;;;;;;21.42;14.02;;;;;;;-3.95;100.00;102652.03;4718932;30;20066;-74
2021/12/22 06:24:01;;;;;;;28.98;15.30;;;;;;;-3.93;100.00;102639.28;4728487;30;20066;-74
2021/12/22 06:26:30;;;;;;;26.35;14.52;;;;;;;-3.96;100.00;102641.56;4710054;30;20047;-74
2021/12/22 06:28:59;;;;;;;25.10;14.20;;;;;;;-3.98;100.00;102646.59;4748803;30;20043;-75
2021/12/22 06:31:33;;;;;;;24.73;15.13;;;;;;;-4.02;100.00;102649.66;4731358;30;20513;-74
2021/12/22 06:34:03;;;;;;;25.85;15.85;;;;;;;-4.05;100.00;102643.31;4716593;30;20529;-73
2021/12/22 06:36:32;;;;;;;26.05;14.88;;;;;;;-4.08;100.00;102656.81;4709608;30;20036;-74
2021/12/22 06:39:03;;;;;;;26.10;15.32;;;;;;;-4.08;100.00;102656.81;4731263;30;20522;-74
2021/12/22 06:41:33;;;;;;;26.30;14.95;;;;;;;-4.10;100.00;102660.94;4746557;30;20066;-73
2021/12/22 06:44:05;;;;;;;30.63;15.07;;;;;;;-4.10;100.00;102666.09;4745327;30;20423;-74
2021/12/22 06:46:34;;;;;;;25.35;15.70;;;;;;;-4.11;100.00;102665.16;4717401;30;20053;-74
2021/12/22 06:49:03;;;;;;;22.45;14.45;;;;;;;-4.11;100.00;102656.53;4744470;30;20060;-74
2021/12/22 06:51:32;;;;;;;31.25;15.45;;;;;;;-4.12;100.00;102667.59;4667575;30;20064;-74
2021/12/22 06:54:00;;;;;;;31.45;15.80;;;;;;;-4.13;100.00;102661.53;4708565;30;20511;-73
2021/12/22 06:56:29;;;;;;;25.95;15.82;;;;;;;-4.14;100.00;102666.53;4697513;30;20511;-73
2021/12/22 06:58:59;;;;;;;27.90;16.05;;;;;;;-4.15;100.00;102668.22;4718888;30;20071;-74
2021/12/22 07:01:32;;;;;;;25.15;13.15;;;;;;;-4.15;100.00;102659.59;4701862;30;20060;-73
2021/12/22 07:04:03;;;;;;;26.35;14.18;;;;;;;-4.16;100.00;102660.34;4688974;30;20206;-73
2021/12/22 07:06:32;;;;;;;23.53;15.47;;;;;;;-4.17;100.00;102653.41;4693383;30;20036;-74
2021/12/22 07:09:01;;;;;;;26.90;15.40;;;;;;;-4.17;100.00;102662.03;4683424;30;20661;-74
2021/12/22 07:11:29;;;;;;;25.10;15.32;;;;;;;-4.18;100.00;102656.72;4695591;30;20060;-74
2021/12/22 07:14:00;;;;;;;22.35;14.18;;;;;;;-4.19;100.00;102649.78;4694165;30;20048;-74
2021/12/22 07:16:29;;;;;;;25.90;15.82;;;;;;;-4.19;100.00;102642.97;4675847;30;20057;-74
2021/12/22 07:18:58;;;;;;;25.67;14.95;;;;;;;-4.18;100.00;102643.84;4720222;30;20067;-74
2021/12/22 07:21:26;;;;;;;28.63;16.05;;;;;;;-4.18;100.00;102642.22;4680412;30;20269;-75
2021/12/22 07:23:55;;;;;;;25.85;15.63;;;;;;;-4.17;100.00;102640.53;4728698;30;20075;-74
2021/12/22 07:26:24;;;;;;;24.92;15.95;;;;;;;-4.18;100.00;102639.63;4700741;30;20057;-74
2021/12/22 07:28:53;;;;;;;30.10;15.80;;;;;;;-4.17;100.00;102637.97;4703956;30;20199;-74
2021/12/22 07:31:22;;;;;;;29.98;16.30;;;;;;;-4.18;100.00;102637.06;4724865;30;20546;-74
2021/12/22 07:34:14;;;;;;;29.77;16.42;;;;;;;-4.17;100.00;102637.97;4714020;30;20478;-74
2021/12/22 07:36:50;;;;;;;31.80;15.57;;;;;;;-4.19;100.00;102637.81;4688002;30;20950;-74
2021/12/22 07:39:19;;;;;;;26.20;14.77;;;;;;;-4.17;100.00;102631.13;4714477;30;20059;-74
2021/12/22 07:41:47;;;;;;;30.58;15.52;;;;;;;-4.15;100.00;102632.16;4672208;30;20768;-74
2021/12/22 07:44:16;;;;;;;30.55;16.70;;;;;;;-4.16;100.00;102632.97;4686180;30;20411;-74
2021/12/22 07:46:44;;;;;;;30.92;16.23;;;;;;;-4.15;100.00;102627.03;4687180;30;20311;-74
2021/12/22 07:49:13;;;;;;;26.25;16.02;;;;;;;-4.16;100.00;102626.88;4716698;30;20526;-74
2021/12/22 07:51:41;;;;;;;29.75;15.38;;;;;;;-4.17;100.00;102620.84;4699105;30;20656;-74
2021/12/22 07:54:10;;;;;;;27.52;17.02;;;;;;;-4.16;100.00;102629.44;4709920;30;20052;-74
2021/12/22 07:56:39;;;;;;;31.35;16.10;;;;;;;-4.16;100.00;102635.53;4695533;30;20052;-75
2021/12/22 07:59:07;;;;;;;30.48;16.23;;;;;;;-4.15;100.00;102631.28;4734584;30;20056;-76
2021/12/22 08:01:36;;;;;;;29.35;15.85;;;;;;;-4.14;100.00;102625.34;4715889;30;20067;-75
2021/12/22 08:04:05;;;;;;;26.80;15.18;;;;;;;-4.14;100.00;102631.41;4746635;30;20043;-75
2021/12/22 08:06:34;;;;;;;23.45;15.48;;;;;;;-4.14;100.00;102635.63;4728912;30;20054;-75
2021/12/22 08:09:03;;;;;;;31.13;16.85;;;;;;;-4.15;100.00;102631.28;4697032;30;20414;-75
2021/12/22 08:11:31;;;;;;;30.45;15.75;;;;;;;-4.16;100.00;102639.75;4727143;30;20062;-76
2021/12/22 08:14:00;;;;;;;29.38;15.60;;;;;;;-4.13;100.00;102630.63;4724825;30;20514;-76
2021/12/22 08:16:31;;;;;;;29.15;16.55;;;;;;;-4.11;100.00;102630.78;4751707;29;20044;-75
2021/12/22 08:19:00;;;;;;;27.70;15.43;;;;;;;-4.08;100.00;102632.72;4712955;30;20060;-75
2021/12/22 08:21:30;;;;;;;26.63;16.65;;;;;;;-4.09;100.00;102634.41;4739377;30;20051;-76
2021/12/22 08:23:58;;;;;;;31.10;16.02;;;;;;;-4.06;100.00;102634.69;4712484;30;20036;-75
2021/12/22 08:26:27;;;;;;;31.85;16.58;;;;;;;-4.01;100.00;102642.81;4725362;30;20048;-75
2021/12/22 08:28:55;;;;;;;25.55;15.93;;;;;;;-3.99;100.00;102647.38;4736050;30;20747;-75
2021/12/22 08:31:24;;;;;;;28.48;15.88;;;;;;;-3.96;100.00;102634.75;4736174;30;20058;-75
2021/12/22 08:33:54;;;;;;;33.67;15.75;;;;;;;-3.94;100.00;102647.75;4710515;30;20676;-75
2021/12/22 08:39:15;;;;;;;29.30;16.13;;;;;;;-3.89;100.00;102635.28;4753392;29;20051;-75
2021/12/22 08:41:47;;;;;;;26.58;15.05;;;;;;;-3.86;100.00;102641.63;4741010;30;20060;-76
2021/12/22 08:44:18;;;;;;;25.85;15.52;;;;;;;-3.82;100.00;102643.75;4701674;30;20419;-75
2021/12/22 08:46:49;;;;;;;25.02;15.65;;;;;;;-3.80;100.00;102636.13;4752861;30;20060;-76
2021/12/22 08:49:20;;;;;;;29.70;16.90;;;;;;;-3.76;100.00;102633.09;4761319;30;20407;-76
2021/12/22 08:51:49;;;;;;;;;;;;;;;-3.72;100.00;102636.06;4754252;30;20280;-75
2021/12/22 08:54:21;;;;;;;25.70;15.10;;;;;;;-3.68;100.00;102631.19;4751405;30;20313;-76
2021/12/22 08:56:52;;;;;;;33.10;18.55;;;;;;;-3.65;100.00;102636.59;4710024;30;20632;-76
2021/12/22 08:59:22;;;;;;;30.08;15.93;;;;;;;-3.61;100.00;102639.59;4716638;30;20063;-76
2021/12/22 09:01:51;;;;;;;19.30;12.60;;;;;;;-3.57;100.00;102638.19;4743409;30;20268;-76
2021/12/22 09:04:23;;;;;;;27.80;15.20;;;;;;;-3.54;100.00;102646.19;4722393;30;20043;-74
2021/12/22 09:06:52;;;;;;;25.75;15.70;;;;;;;-3.48;100.00;102645.81;4710624;30;20181;-74
2021/12/22 09:09:22;;;;;;;28.63;14.95;;;;;;;-3.44;100.00;102645.31;4692872;30;20040;-74
2021/12/22 09:11:52;;;;;;;26.60;16.23;;;;;;;-3.39;100.00;102646.63;4721188;30;20185;-74
2021/12/22 09:14:21;;;;;;;25.60;16.77;;;;;;;-3.34;100.00;102650.53;4708730;30;20052;-74
2021/12/22 09:16:53;;;;;;;27.13;15.60;;;;;;;-3.29;100.00;102658.66;4691257;30;20155;-74
2021/12/22 09:19:23;;;;;;;28.60;15.02;;;;;;;-3.24;100.00;102652.25;4710720;30;20062;-74
2021/12/22 09:21:52;;;;;;;21.80;12.50;;;;;;;-3.21;100.00;102658.56;4721321;30;20413;-74
2021/12/22 09:24:27;;;;;;;26.60;15.55;;;;;;;-3.17;100.00;102657.19;4707552;30;20311;-74
2021/12/22 09:26:56;;;;;;;30.27;16.77;;;;;;;-3.11;100.00;102654.22;4677037;30;20055;-74
2021/12/22 09:29:26;;;;;;;24.98;15.82;;;;;;;-3.07;100.00;102651.16;4718329;30;20414;-74
2021/12/22 09:31:58;;;;;;;25.92;15.48;;;;;;;-3.03;100.00;102653.22;4689288;30;20629;-74
2021/12/22 09:34:26;;;;;;;27.55;15.88;;;;;;;-2.99;100.00;102661.34;4713979;30;20526;-74
2021/12/22 09:36:55;;;;;;;23.67;15.05;;;;;;;-2.95;100.00;102647.97;4672771;30;20040;-74
2021/12/22 09:39:24;;;;;;;26.08;17.02;;;;;;;-2.92;100.00;102644.72;4726535;30;20052;-74
2021/12/22 09:41:55;;;;;;;23.95;15.88;;;;;;;-2.87;100.00;102642.53;4723450;30;20494;-74
2021/12/22 09:44:30;;;;;;;25.42;16.08;;;;;;;-2.82;100.00;102638.69;4740101;30;20063;-74
2021/12/22 09:47:05;;;;;;;24.65;16.05;;;;;;;-2.79;100.00;102645.00;4739824;30;20064;-75
2021/12/22 09:52:27;;;;;;;31.52;16.10;;;;;;;-2.69;100.00;102645.81;4720198;30;20068;-75
2021/12/22 09:55:01;;;;;;;29.42;16.77;;;;;;;-2.64;100.00;102641.94;4738936;30;20408;-75
2021/12/22 09:57:30;;;;;;;29.52;16.25;;;;;;;-2.61;100.00;102635.38;4677529;30;20519;-75
2021/12/22 10:00:04;;;;;;;25.27;15.95;;;;;;;-2.57;100.00;102634.84;4741457;30;20059;-75
2021/12/22 10:02:41;;;;;;;26.45;15.70;;;;;;;-2.52;100.00;102642.09;4706786;30;20063;-74
2021/12/22 10:05:10;;;;;;;27.60;16.02;;;;;;;-2.48;100.00;102641.56;4692047;30;20056;-74
2021/12/22 10:07:41;;;;;;;26.20;15.82;;;;;;;-2.43;100.00;102646.34;4692226;30;20550;-74
2021/12/22 10:10:10;;;;;;;28.90;14.95;;;;;;;-2.40;100.00;102637.94;4739476;30;20062;-75
2021/12/22 10:12:39;;;;;;;25.55;15.57;;;;;;;-2.37;100.00;102635.63;4709949;30;20510;-75
2021/12/22 10:15:09;;;;;;;28.27;16.88;;;;;;;-2.33;100.00;102639.38;4715083;30;20549;-76
2021/12/22 10:17:41;;;;;;;25.13;15.85;;;;;;;-2.30;100.00;102634.47;4727804;30;20174;-75
2021/12/22 10:20:13;;;;;;;30.02;15.82;;;;;;;-2.26;100.00;102634.84;4696456;30;20055;-75
2021/12/22 10:22:45;;;;;;;30.50;16.85;;;;;;;-2.22;100.00;102636.00;4731978;30;20546;-74
2021/12/22 10:25:20;;;;;;;24.02;15.57;;;;;;;-2.17;100.00;102637.31;4741856;30;20060;-75
2021/12/22 10:28:05;;;;;;;29.88;16.50;;;;;;;-2.12;100.00;102627.34;4735820;30;20308;-75
2021/12/22 10:30:47;;;;;;;27.83;16.05;;;;;;;-2.08;100.00;102622.56;4702370;30;20052;-75
2021/12/22 10:33:18;;;;;;;31.92;16.38;;;;;;;-2.05;100.00;102630.56;4727309;30;20533;-75
2021/12/22 10:35:49;;;;;;;26.45;14.90;;;;;;;-2.00;100.00;102624.09;4721913;30;20064;-76
2021/12/22 10:38:21;;;;;;;27.70;14.98;;;;;;;-1.96;100.00;102614.94;4732491;30;20059;-75
2021/12/22 10:40:55;;;;;;;28.15;15.55;;;;;;;-1.89;100.00;102614.66;4708589;30;20546;-75
2021/12/22 10:43:30;;;;;;;26.30;15.23;;;;;;;-1.83;100.00;102611.66;4729501;30;20064;-75
2021/12/22 10:46:04;;;;;;;29.23;14.73;;;;;;;-1.78;100.00;102602.59;4733062;30;20067;-75
2021/12/22 10:51:32;;;;;;;26.73;15.23;;;;;;;-1.65;100.00;102601.91;4717942;30;20059;-76
2021/12/22 10:54:07;;;;;;;28.63;13.95;;;;;;;-1.64;100.00;102599.44;4754357;30;20302;-75
2021/12/22 10:56:45;;;;;;;29.50;14.63;;;;;;;-1.59;100.00;102592.97;4715562;30;20280;-75
2021/12/22 10:59:19;;;;;;;24.75;14.20;;;;;;;-1.54;100.00;102587.25;4716190;30;20056;-74
2021/12/22 11:01:50;;;;;;;21.58;14.52;;;;;;;-1.51;100.00;102580.66;4727689;30;20550;-75
2021/12/22 11:04:27;;;;;;;25.77;13.07;;;;;;;-1.46;100.00;102588.78;4744286;30;20502;-75
2021/12/22 11:07:07;;;;;;;23.20;13.45;;;;;;;-1.46;100.00;102583.59;4728133;30;20395;-75
2021/12/22 11:09:36;;;;;;;;;;;;;;;-1.45;100.00;102580.25;4734387;30;20052;-75
2021/12/22 11:12:06;;;;;;;21.55;13.05;;;;;;;-1.40;100.00;102581.50;4755600;30;20376;-75
2021/12/22 11:14:48;;;;;;;25.77;13.68;;;;;;;-1.38;100.00;102573.09;4713638;30;20525;-74
2021/12/22 11:17:20;;;;;;;21.37;13.20;;;;;;;-1.34;100.00;102578.50;4749023;30;20421;-74
2021/12/22 11:19:58;;;;;;;25.00;13.88;;;;;;;-1.33;100.00;102570.84;4754576;30;20589;-75
2021/12/22 11:22:46;;;;;;;21.50;12.88;;;;;;;-1.28;100.00;102579.00;4715212;30;20162;-75
2021/12/22 11:25:15;;;;;;;23.50;13.00;;;;;;;-1.23;100.00;102569.88;4734374;30;20510;-75
2021/12/22 11:27:47;;;;;;;17.83;12.35;;;;;;;-1.20;100.00;102567.56;4709864;30;20578;-75
2021/12/22 11:30:16;;;;;;;20.98;13.43;;;;;;;-1.18;100.00;102566.88;4726685;30;20063;-76
2021/12/22 11:32:46;;;;;;;22.63;12.63;;;;;;;-1.13;100.00;102564.69;4754646;30;20185;-75
2021/12/22 11:35:16;;;;;;;21.50;12.48;;;;;;;-1.05;100.00;102568.75;4724547;30;20549;-74
2021/12/22 11:37:44;;;;;;;20.33;12.63;;;;;;;-1.00;100.00;102566.53;4747203;30;20438;-75
2021/12/22 11:40:16;;;;;;;17.52;11.82;;;;;;;-0.94;100.00;102559.25;4742169;30;20059;-75
2021/12/22 11:42:45;;;;;;;18.55;11.27;;;;;;;-0.91;100.00;102549.09;4742017;30;20430;-75
2021/12/22 11:45:17;;;;;;;20.23;11.95;;;;;;;-0.91;100.00;102543.03;4727771;30;20055;-75
2021/12/22 11:47:48;;;;;;;19.10;12.10;;;;;;;-0.88;100.00;102541.59;4700835;30;20050;-75
2021/12/22 11:50:25;;;;;;;17.67;11.50;;;;;;;-0.84;100.00;102534.97;4732788;30;20059;-75
2021/12/22 11:52:55;;;;;;;18.55;11.35;;;;;;;-0.85;100.00;102533.13;4735494;30;20063;-75
2021/12/22 11:55:44;;;;;;;15.18;10.65;;;;;;;-0.84;100.00;102528.09;4732430;30;20043;-75
2021/12/22 11:58:25;;;;;;;19.63;10.75;;;;;;;-0.83;100.00;102523.84;4728995;30;20060;-75
2021/12/22 12:00:54;;;;;;;16.70;10.57;;;;;;;-0.84;100.00;102517.72;4744812;30;20048;-74
2021/12/22 12:03:44;;;;;;;17.77;11.75;;;;;;;-0.84;100.00;102527.19;4701707;30;20062;-77